Cleveland, OH (44116)

8:49 PM EDT on August 30, 2015 (GMT -0400)
APRSWXNET | | Change Station
CLOSE
Current Station
Personal Weather Station
Location: Cleveland, OH
Elevation: 690 ft
Nearby Weather Stations

Elev 690 ft 41.47 °N, 81.65 °W | Updated 31 minutes ago

Partly Cloudy
Partly Cloudy
78 °F
Feels Like 80 °F
N
0
Wind Variable Wind from West
Gusts 0.0 mph

Today
High -- | Low -- °F
--% Chance of Precip.
Yesterday
High -- | Low -- °F
Precip. -- in
6:50 AM 8:03 PM
Full, 98% visible
Pressure 30.01 in
Visibility 10.0 miles
Clouds Scattered Clouds 9000 ft
Heat Index 80 °F
Dew Point 67 °F
Humidity 69%
Rainfall in
Snow Depth Not available.
UV 0 out of 12
Pollen 9.80 out of 12
Air Quality Not available.
Flu Activity Not available.
METAR KBKL 302353Z 00000KT 10SM SCT090 26/21 A3002 RMK AO2 SLP161 T02560211 10278 20244 55001
Pressure 30.01 in
Visibility 10.0 miles
Clouds Scattered Clouds 9000 ft
Heat Index 80 °F
Dew Point 67 °F
Humidity 69%
Rainfall in
Snow Depth Not available.
UV 0 out of 12
Pollen 9.80 out of 12
Air Quality Not available.
Flu Activity Not available.
METAR KBKL 302353Z 00000KT 10SM SCT090 26/21 A3002 RMK AO2 SLP161 T02560211 10278 20244 55001

10-Day Weather Forecast

×

Almanac

Astronomy

Aug. 30, 2015 Rise Set
Actual Time
Civil Twilight
Nautical Twilight
Astronomical Twilight
Moon
Length of Visible Light
Length of Day
Tomorrow will be .
, % of the Moon is Illuminated

Today's Extremes

State Highs State Lows

Community

WunderPhotos

Upload Photos

1,851,116 photos uploaded!

WunderBlogs® & News

Nearby

Air Quality

  Air Quality AQ Index Pollutant
Not available.

Snow Depth

Station Depth Elevation

Earthquake Activity

City Distance Mag. Time & Date
Minimum magnitude displayed is 2.5.

Coastal Water Temperatures

Place Temperature

Stations

Nearby Weather Stations

Station Location Temp. Windchill Dew Point Humidity Wind Precip. Elev Updated Type